Language: 


Des rapports , des résumés tant et plus, au choix de chacun....


Données statistiques de la station
Quotidien Rapport Aout 13, 2017 Unités:  Anglais    Métrique   les deux
« Précédent Jour
Suivant Jour »
Quotidien Hebdomadaire Mensuel Annuel Actuel
  Haut: Bas: Moyen:
Température: 77.4 °F 32 °F 62.8 °F
Pt de rosée: 68 °F 51.8 °F 56.3 °F
Humidité: 98 % 0 % 80 %
Vitesse du vent: 8.7 mph 0 mph 1.7 mph
Rafales: 9.2 mph - -
Vent:- - WSW
Pression: 30.2 in 30.1 in -
Précipitation: 0 in    
Historical Graphs
 
 
Données statistiques pour Aout 13, 2017
Heure Température Point de rosée Pression Vent Vitesse du vent Refales Humidité Pluie (taux horaire)
00:00 58.1 °F 55.4 °F 30.1 in Calm   3.8 mph 91 % 0 in
00:05 57.9 °F 55.4 °F 30.1 in Calm     92 % 0 in
00:10 57.6 °F 55.4 °F 30.1 in Calm   4 mph 93 % 0 in
00:15 57.7 °F 55.4 °F 30.1 in SW 4 mph 6 mph 93 % 0 in
00:20 57.7 °F 55.4 °F 30.1 in West 4.9 mph 6 mph 94 % 0 in
00:25 57.7 °F 55.4 °F 30.1 in Calm   6.5 mph 94 % 0 in
00:30 57.6 °F 55.4 °F 30.1 in WSW 4.5 mph 6.5 mph 94 % 0 in
00:35 57.6 °F 55.4 °F 30.1 in WSW 2.5 mph 5.4 mph 94 % 0 in
00:40 57.4 °F 55.4 °F 30.1 in Calm   4.9 mph 95 % 0 in
00:45 57.4 °F 55.4 °F 30.1 in West 3.6 mph 5.4 mph 95 % 0 in
00:50 57.4 °F 55.4 °F 30.1 in West 4 mph 5.4 mph 95 % 0 in
00:55 57.2 °F 55.4 °F 30.1 in Calm   5.4 mph 95 % 0 in
00:56 57.2 °F 55.4 °F 30.1 in West 3.4 mph 5.4 mph 95 % 0 in
01:01 57 °F 55.4 °F 30.1 in Calm   4.3 mph 95 % 0 in
01:06 56.8 °F 55.4 °F 30.1 in West 1.6 mph 4.3 mph 95 % 0 in
01:11 56.7 °F 55.4 °F 30.1 in Calm   4.7 mph 96 % 0 in
01:16 56.5 °F 55.4 °F 30.1 in Calm   4.7 mph 95 % 0 in
01:21 56.1 °F 55.4 °F 30.1 in Calm   3.8 mph 95 % 0 in
01:26 55.9 °F 55.4 °F 30.1 in Calm     95 % 0 in
01:31 55.9 °F 55.4 °F 30.1 in Calm   3.6 mph 96 % 0 in
01:36 56.1 °F 55.4 °F 30.1 in Calm   4.3 mph 96 % 0 in
01:41 56.1 °F 55.4 °F 30.1 in West 3.8 mph 4.9 mph 97 % 0 in
01:46 56.1 °F 55.4 °F 30.1 in Calm   4.9 mph 96 % 0 in
01:51 56.1 °F 55.4 °F 30.1 in Calm   3.4 mph 96 % 0 in
01:56 55.4 °F 55.4 °F 30.1 in Calm     96 % 0 in
02:01 55 °F 55.4 °F 30.1 in Calm     96 % 0 in
02:06 54.9 °F 55.4 °F 30.1 in Calm     96 % 0 in
02:11 54.9 °F 55.4 °F 30.1 in Calm     96 % 0 in
02:16 54.5 °F 55.4 °F 30.1 in Calm     97 % 0 in
02:21 54.5 °F 55.4 °F 30.1 in Calm     97 % 0 in
02:26 54.3 °F 53.6 °F 30.1 in Calm     97 % 0 in
02:31 54.3 °F 53.6 °F 30.1 in Calm     97 % 0 in
02:36 54.1 °F 53.6 °F 30.1 in Calm     97 % 0 in
02:41 54.1 °F 53.6 °F 30.1 in Calm     97 % 0 in
02:46 54 °F 53.6 °F 30.1 in Calm     97 % 0 in
02:51 54 °F 53.6 °F 30.1 in Calm     97 % 0 in
02:56 53.8 °F 53.6 °F 30.1 in Calm     97 % 0 in
03:02 32 °F 53.6 °F 30.1 in Calm     0 % 0 in
03:07 53.8 °F 53.6 °F 30.1 in Calm     97 % 0 in
03:12 53.8 °F 53.6 °F 30.1 in Calm     97 % 0 in
03:17 53.8 °F 53.6 °F 30.1 in Calm     98 % 0 in
03:22 53.8 °F 53.6 °F 30.1 in Calm     98 % 0 in
03:27 53.8 °F 53.6 °F 30.1 in Calm     98 % 0 in
03:32 53.6 °F 53.6 °F 30.1 in Calm     97 % 0 in
03:37 53.4 °F 53.6 °F 30.1 in Calm     98 % 0 in
03:42 53.4 °F 53.6 °F 30.1 in Calm     98 % 0 in
03:47 53.2 °F 53.6 °F 30.1 in Calm     98 % 0 in
03:52 53.1 °F 53.6 °F 30.1 in Calm     98 % 0 in
03:57 52.7 °F 53.6 °F 30.1 in Calm     98 % 0 in
04:02 52.7 °F 53.6 °F 30.1 in Calm     98 % 0 in
04:07 52.7 °F 53.6 °F 30.1 in Calm     98 % 0 in
04:12 52.7 °F 53.6 °F 30.1 in Calm     98 % 0 in
04:17 52.5 °F 51.8 °F 30.1 in Calm     98 % 0 in
04:22 52.5 °F 51.8 °F 30.1 in Calm     98 % 0 in
04:27 52.3 °F 51.8 °F 30.1 in Calm     98 % 0 in
04:32 52.2 °F 51.8 °F 30.1 in Calm     98 % 0 in
04:37 51.8 °F 51.8 °F 30.1 in Calm     98 % 0 in
04:42 51.6 °F 51.8 °F 30.1 in Calm     98 % 0 in
04:48 51.8 °F 51.8 °F 30.1 in Calm     98 % 0 in
04:53 52 °F 51.8 °F 30.1 in Calm     98 % 0 in
04:58 52.2 °F 51.8 °F 30.1 in Calm     98 % 0 in
05:03 52.2 °F 51.8 °F 30.1 in Calm     98 % 0 in
05:08 52.3 °F 51.8 °F 30.1 in Calm     98 % 0 in
05:14 52.2 °F 51.8 °F 30.1 in Calm     98 % 0 in
05:19 51.8 °F 51.8 °F 30.1 in Calm     98 % 0 in
05:20 51.8 °F 51.8 °F 30.1 in Calm     98 % 0 in
05:23 51.8 °F 51.8 °F 30.1 in Calm     98 % 0 in
05:25 51.8 °F 51.8 °F 30.1 in Calm     98 % 0 in
05:27 51.8 °F 51.8 °F 30.1 in Calm     98 % 0 in
05:32 51.6 °F 51.8 °F 30.1 in Calm     98 % 0 in
05:34 51.6 °F 51.8 °F 30.1 in Calm     98 % 0 in
05:39 51.8 °F 51.8 °F 30.1 in Calm     98 % 0 in
05:44 51.8 °F 51.8 °F 30.1 in Calm     98 % 0 in
05:49 51.6 °F 51.8 °F 30.1 in Calm     98 % 0 in
05:54 51.4 °F 51.8 °F 30.1 in Calm     98 % 0 in
06:00 52 °F 51.8 °F 30.1 in Calm     98 % 0 in
06:05 52 °F 51.8 °F 30.1 in Calm     98 % 0 in
06:10 52 °F 51.8 °F 30.1 in Calm     98 % 0 in
06:15 51.6 °F 51.8 °F 30.1 in Calm     98 % 0 in
06:20 52 °F 51.8 °F 30.1 in Calm     98 % 0 in
06:25 52.3 °F 51.8 °F 30.1 in Calm     98 % 0 in
06:30 52.5 °F 51.8 °F 30.1 in Calm     98 % 0 in
06:35 52.7 °F 53.6 °F 30.1 in Calm   1.3 mph 98 % 0 in
06:40 52.7 °F 53.6 °F 30.1 in Calm   2.9 mph 98 % 0 in
06:45 52.2 °F 51.8 °F 30.1 in Calm   2.9 mph 98 % 0 in
06:50 51.8 °F 51.8 °F 30.1 in Calm   1.6 mph 98 % 0 in
06:55 51.8 °F 51.8 °F 30.1 in West 2.5 mph 2.5 mph 98 % 0 in
07:00 52 °F 51.8 °F 30.1 in WSW 2.9 mph 3.8 mph 98 % 0 in
07:05 52.2 °F 51.8 °F 30.1 in Calm   3.8 mph 98 % 0 in
07:10 52.3 °F 51.8 °F 30.1 in Calm   3.4 mph 98 % 0 in
07:15 52.5 °F 51.8 °F 30.1 in Calm     98 % 0 in
07:20 52.7 °F 53.6 °F 30.1 in Calm     98 % 0 in
07:25 52.9 °F 53.6 °F 30.1 in Calm     98 % 0 in
07:30 53.1 °F 53.6 °F 30.1 in Calm   1.6 mph 98 % 0 in
07:35 53.2 °F 53.6 °F 30.1 in Calm   1.6 mph 98 % 0 in
07:40 53.8 °F 53.6 °F 30.1 in Calm   1.6 mph 98 % 0 in
07:45 54 °F 53.6 °F 30.1 in Calm   2.2 mph 98 % 0 in
07:50 54.3 °F 55.4 °F 30.1 in Calm   2.2 mph 98 % 0 in
07:55 54.5 °F 55.4 °F 30.1 in Calm     98 % 0 in
08:00 54.9 °F 55.4 °F 30.1 in Calm     98 % 0 in
08:05 55.4 °F 55.4 °F 30.1 in Calm     98 % 0 in
08:10 55.6 °F 55.4 °F 30.1 in Calm     98 % 0 in
08:15 56.1 °F 55.4 °F 30.1 in Calm     98 % 0 in
08:20 56.5 °F 57.2 °F 30.1 in Calm     98 % 0 in
08:25 56.8 °F 57.2 °F 30.1 in Calm     98 % 0 in
08:30 57.4 °F 57.2 °F 30.1 in Calm     98 % 0 in
08:35 57.7 °F 57.2 °F 30.1 in Calm     98 % 0 in
08:40 58.3 °F 59 °F 30.1 in Calm   3.4 mph 98 % 0 in
08:45 58.8 °F 59 °F 30.1 in Calm   4.3 mph 98 % 0 in
08:50 59.4 °F 59 °F 30.1 in West 3.1 mph 4.3 mph 98 % 0 in
08:55 59.7 °F 59 °F 30.1 in Calm   3.6 mph 98 % 0 in
09:00 60.4 °F 60.8 °F 30.1 in Calm   3.6 mph 98 % 0 in
09:05 61 °F 60.8 °F 30.1 in Calm   3.4 mph 98 % 0 in
09:10 61.5 °F 60.8 °F 30.1 in Calm   3.4 mph 98 % 0 in
09:15 62.8 °F 62.6 °F 30.1 in Calm   1.3 mph 97 % 0 in
09:20 63.3 °F 62.6 °F 30.1 in Calm     97 % 0 in
09:25 64.2 °F 64.4 °F 30.1 in Calm     97 % 0 in
09:31 65.3 °F 64.4 °F 30.1 in Calm     96 % 0 in
09:36 66 °F 66.2 °F 30.1 in Calm     96 % 0 in
09:41 66.9 °F 66.2 °F 30.1 in Calm   1.1 mph 96 % 0 in
09:46 67.8 °F 66.2 °F 30.1 in Calm   2.5 mph 95 % 0 in
09:51 68.2 °F 66.2 °F 30.1 in Calm   3.4 mph 93 % 0 in
09:56 68.7 °F 66.2 °F 30.1 in Calm   3.4 mph 92 % 0 in
10:01 69.6 °F 68 °F 30.1 in NNE 0.9 mph 5.4 mph 91 % 0 in
10:06 70 °F 66.2 °F 30.1 in Calm   5.4 mph 90 % 0 in
10:11 68.7 °F 66.2 °F 30.1 in NE 3.6 mph 5.4 mph 89 % 0 in
10:16 69.4 °F 66.2 °F 30.1 in North 2.7 mph 3.6 mph 89 % 0 in
10:21 69.4 °F 66.2 °F 30.1 in NNW 2.5 mph 4.7 mph 88 % 0 in
10:26 70.3 °F 66.2 °F 30.1 in Calm   4.7 mph 86 % 0 in
10:31 71.1 °F 66.2 °F 30.1 in Calm   3.6 mph 84 % 0 in
10:36 71.2 °F 64.4 °F 30.1 in ENE 4.3 mph 7.2 mph 81 % 0 in
10:41 72 °F 66.2 °F 30.1 in NE 2.7 mph 7.2 mph 80 % 0 in
10:46 72.5 °F 66.2 °F 30.1 in NE 3.8 mph 6.3 mph 79 % 0 in
10:51 72.7 °F 64.4 °F 30.1 in NE 4 mph 6.3 mph 75 % 0 in
10:56 73 °F 64.4 °F 30.1 in NNW 2.9 mph 6.3 mph 74 % 0 in
11:01 72 °F 62.6 °F 30.1 in Calm   3.8 mph 72 % 0 in
11:06 71.2 °F 62.6 °F 30.1 in Calm   3.8 mph 72 % 0 in
11:11 71.1 °F 62.6 °F 30.2 in Calm   3.6 mph 73 % 0 in
11:16 70.7 °F 62.6 °F 30.2 in Calm     72 % 0 in
11:21 70.2 °F 60.8 °F 30.2 in Calm   4 mph 71 % 0 in
11:26 69.8 °F 60.8 °F 30.1 in NW 2.7 mph 4 mph 72 % 0 in
11:32 69.3 °F 60.8 °F 30.1 in NNE 2.9 mph 4 mph 73 % 0 in
11:37 69.3 °F 60.8 °F 30.1 in NNW 4 mph 4 mph 73 % 0 in
11:42 69.3 °F 60.8 °F 30.2 in Calm   5.8 mph 73 % 0 in
11:47 70.2 °F 62.6 °F 30.2 in North 3.6 mph 4 mph 74 % 0 in
11:52 70.3 °F 60.8 °F 30.2 in North 1.1 mph 5.6 mph 73 % 0 in
11:57 70.2 °F 60.8 °F 30.2 in NNW 3.4 mph 5.6 mph 73 % 0 in
12:02 69.8 °F 60.8 °F 30.2 in NNW 3.1 mph 3.6 mph 71 % 0 in
12:07 69.6 °F 60.8 °F 30.2 in Calm   3.1 mph 72 % 0 in
12:12 69.1 °F 60.8 °F 30.2 in Calm   4.9 mph 72 % 0 in
12:17 69.1 °F 60.8 °F 30.2 in North 4.3 mph 4.9 mph 73 % 0 in
12:22 68.7 °F 60.8 °F 30.2 in Calm   6.3 mph 74 % 0 in
12:27 68.5 °F 60.8 °F 30.2 in WNW 2.7 mph 6.5 mph 75 % 0 in
12:32 68.5 °F 60.8 °F 30.2 in NNW 6 mph 6.5 mph 75 % 0 in
12:37 68.4 °F 60.8 °F 30.2 in NNE 2.9 mph 6 mph 75 % 0 in
12:42 68.2 °F 60.8 °F 30.2 in NNW 2.7 mph 7.6 mph 76 % 0 in
12:47 68.2 °F 59 °F 30.2 in WNW 3.6 mph 7.6 mph 74 % 0 in
12:52 68.2 °F 59 °F 30.2 in NNW 4.7 mph 5.6 mph 74 % 0 in
12:57 68.2 °F 59 °F 30.2 in North 3.8 mph 6 mph 74 % 0 in
13:02 68.4 °F 60.8 °F 30.2 in Calm   6 mph 74 % 0 in
13:07 68.9 °F 60.8 °F 30.2 in NNE 3.4 mph 6 mph 74 % 0 in
13:12 69.4 °F 60.8 °F 30.2 in Calm   4 mph 74 % 0 in
13:18 70.3 °F 60.8 °F 30.2 in Calm   6 mph 73 % 0 in
13:23 70.5 °F 60.8 °F 30.2 in North 2.7 mph 6 mph 71 % 0 in
13:28 70.9 °F 60.8 °F 30.2 in North 6 mph 6.5 mph 71 % 0 in
13:33 70.7 °F 60.8 °F 30.2 in Calm   7.4 mph 70 % 0 in
13:38 70.5 °F 60.8 °F 30.2 in NNE 5.4 mph 7.4 mph 70 % 0 in
13:43 70.7 °F 60.8 °F 30.2 in North 3.6 mph 6 mph 69 % 0 in
13:48 70.5 °F 59 °F 30.2 in East 5.6 mph 8.1 mph 68 % 0 in
13:53 72.3 °F 60.8 °F 30.2 in NNW 6 mph 8.1 mph 67 % 0 in
13:58 74.3 °F 62.6 °F 30.2 in ESE 3.1 mph 6.5 mph 66 % 0 in
14:03 73.8 °F 62.6 °F 30.2 in NW 8.7 mph 8.7 mph 65 % 0 in
14:08 73.6 °F 60.8 °F 30.1 in NNW 5.4 mph 8.7 mph 65 % 0 in
14:13 74.1 °F 62.6 °F 30.1 in NNW 7.6 mph 8.7 mph 65 % 0 in
14:18 73.8 °F 60.8 °F 30.1 in NNW 4.3 mph 8.7 mph 62 % 0 in
14:23 75.4 °F 60.8 °F 30.1 in South 0.9 mph 8.7 mph 62 % 0 in
14:28 75 °F 60.8 °F 30.2 in ENE 4.3 mph 7.8 mph 60 % 0 in
14:33 75.2 °F 59 °F 30.2 in NW 2 mph 7.8 mph 58 % 0 in
14:38 75.4 °F 59 °F 30.2 in NW 4.9 mph 7.6 mph 56 % 0 in
14:43 75.9 °F 59 °F 30.2 in North 3.6 mph 6.5 mph 55 % 0 in
14:48 76.6 °F 59 °F 30.2 in WNW 6.3 mph 6.5 mph 55 % 0 in
14:53 77.2 °F 59 °F 30.2 in NE 3.8 mph 6.3 mph 52 % 0 in
14:58 75.9 °F 57.2 °F 30.2 in ENE 2.9 mph 6.3 mph 52 % 0 in
15:03 75 °F 57.2 °F 30.2 in Calm   6.3 mph 54 % 0 in
15:08 74.3 °F 57.2 °F 30.2 in NNE 4.3 mph 5.6 mph 56 % 0 in
15:13 73.9 °F 57.2 °F 30.2 in North 4 mph 5.6 mph 57 % 0 in
15:18 76.3 °F 59 °F 30.2 in North 4.3 mph 5.8 mph 55 % 0 in
15:23 77.4 °F 60.8 °F 30.2 in NW 5.4 mph 8.7 mph 55 % 0 in
15:29 75.7 °F 59 °F 30.2 in West 4 mph 8.7 mph 55 % 0 in
15:34 75.4 °F 57.2 °F 30.2 in ENE 3.1 mph 7.2 mph 55 % 0 in
15:39 76.3 °F 59 °F 30.2 in Calm   6 mph 54 % 0 in
15:44 76.1 °F 59 °F 30.2 in North 3.1 mph 7.6 mph 53 % 0 in
15:49 74.1 °F 55.4 °F 30.2 in WNW 2.9 mph 9.2 mph 53 % 0 in
15:54 74.5 °F 59 °F 30.2 in NNE 4.7 mph 9.2 mph 57 % 0 in
15:59 73.4 °F 57.2 °F 30.2 in North 3.1 mph 8.7 mph 58 % 0 in
16:04 72.1 °F 57.2 °F 30.2 in East 2.7 mph 7.6 mph 58 % 0 in
16:09 71.2 °F 57.2 °F 30.2 in NNE 5.6 mph 6.5 mph 60 % 0 in
16:14 70.9 °F 57.2 °F 30.2 in NE 4.7 mph 7.6 mph 60 % 0 in
16:19 70.3 °F 57.2 °F 30.2 in NNW 1.1 mph 8.5 mph 62 % 0 in
16:24 70.2 °F 57.2 °F 30.2 in North 3.4 mph 8.5 mph 62 % 0 in
16:29 70 °F 55.4 °F 30.2 in NNE 1.6 mph 6.5 mph 62 % 0 in
16:31 69.8 °F 57.2 °F 30.2 in NNW 4.9 mph 6.5 mph 63 % 0 in
16:36 69.8 °F 57.2 °F 30.2 in North 4.3 mph 6 mph 64 % 0 in
16:41 69.6 °F 57.2 °F 30.2 in Calm   8.1 mph 64 % 0 in
16:47 69.8 °F 57.2 °F 30.2 in North 5.6 mph 8.1 mph 64 % 0 in
16:52 70 °F 57.2 °F 30.2 in NNW 4 mph 6.5 mph 64 % 0 in
16:57 70.3 °F 57.2 °F 30.2 in North 0.9 mph 6.5 mph 64 % 0 in
17:02 70.3 °F 57.2 °F 30.2 in North 2.5 mph 6.5 mph 63 % 0 in
17:07 71.6 °F 59 °F 30.2 in North 2.9 mph 6.5 mph 63 % 0 in
17:12 73.6 °F 59 °F 30.2 in North 4.3 mph 6.5 mph 61 % 0 in
17:17 73.8 °F 59 °F 30.2 in North 3.1 mph 6 mph 60 % 0 in
17:22 72.9 °F 57.2 °F 30.2 in North 6 mph 8.7 mph 59 % 0 in
17:27 72.1 °F 57.2 °F 30.2 in NNE 8.1 mph 8.7 mph 59 % 0 in
17:32 72.5 °F 57.2 °F 30.2 in NE 6.3 mph 8.1 mph 59 % 0 in
17:37 73.2 °F 59 °F 30.2 in North 4 mph 8.1 mph 60 % 0 in
17:42 73.8 °F 59 °F 30.2 in ENE 3.8 mph 7.8 mph 59 % 0 in
17:47 73 °F 59 °F 30.2 in NNE 5.6 mph 8.5 mph 60 % 0 in
17:52 71.6 °F 57.2 °F 30.2 in ENE 3.4 mph 8.7 mph 60 % 0 in
17:57 70.5 °F 55.4 °F 30.2 in North 6 mph 8.7 mph 61 % 0 in
18:02 70.3 °F 57.2 °F 30.2 in NW 6.3 mph 8.5 mph 62 % 0 in
18:07 70.2 °F 57.2 °F 30.2 in North 3.8 mph 7.4 mph 63 % 0 in
18:12 70 °F 57.2 °F 30.2 in Calm   8.7 mph 63 % 0 in
18:17 71.2 °F 59 °F 30.2 in NNE 4.9 mph 8.7 mph 64 % 0 in
18:22 71.4 °F 59 °F 30.2 in NNW 6 mph 7.4 mph 63 % 0 in
18:27 71.8 °F 57.2 °F 30.2 in NNW 5.4 mph 7.8 mph 61 % 0 in
18:28 71.6 °F 57.2 °F 30.2 in North 3.1 mph 7.8 mph 61 % 0 in
18:33 72 °F 57.2 °F 30.2 in North 3.4 mph 7.8 mph 61 % 0 in
18:38 72 °F 57.2 °F 30.2 in North 5.4 mph 7.6 mph 60 % 0 in
18:43 72.1 °F 57.2 °F 30.2 in North 5.4 mph 7.6 mph 60 % 0 in
18:48 72.1 °F 57.2 °F 30.2 in North 8.5 mph 8.5 mph 60 % 0 in
18:53 71.6 °F 57.2 °F 30.2 in North 3.8 mph 8.5 mph 60 % 0 in
18:58 70.3 °F 55.4 °F 30.2 in North 6.3 mph 8.5 mph 60 % 0 in
19:03 69.4 °F 55.4 °F 30.2 in North 0.9 mph 8.5 mph 61 % 0 in
19:08 68.9 °F 55.4 °F 30.2 in NNE 4.9 mph 8.5 mph 61 % 0 in
19:13 68.5 °F 55.4 °F 30.2 in North 2.5 mph 7.2 mph 61 % 0 in
19:18 68.2 °F 53.6 °F 30.2 in NNW 4.3 mph 7.6 mph 61 % 0 in
19:23 67.8 °F 55.4 °F 30.2 in North 6.5 mph 8.1 mph 62 % 0 in
19:28 67.5 °F 53.6 °F 30.2 in NNW 4 mph 8.1 mph 62 % 0 in
19:33 67.1 °F 53.6 °F 30.2 in NNW 3.8 mph 6 mph 62 % 0 in
19:38 66.9 °F 53.6 °F 30.2 in North 1.6 mph 5.8 mph 62 % 0 in
19:43 66.7 °F 53.6 °F 30.2 in North 3.6 mph 6.3 mph 61 % 0 in
19:48 66.7 °F 53.6 °F 30.2 in NNE 5.8 mph 7.8 mph 61 % 0 in
19:53 66.6 °F 53.6 °F 30.2 in Calm   8.1 mph 61 % 0 in
19:58 66.4 °F 51.8 °F 30.2 in North 4.3 mph 8.1 mph 60 % 0 in
20:03 66.2 °F 53.6 °F 30.2 in NNE 4.3 mph 7.6 mph 62 % 0 in
20:08 65.8 °F 51.8 °F 30.2 in North 5.8 mph 6.3 mph 62 % 0 in
20:13 65.7 °F 51.8 °F 30.2 in NNE 3.8 mph 7.4 mph 62 % 0 in
20:18 65.3 °F 53.6 °F 30.2 in North 3.4 mph 7.4 mph 63 % 0 in
20:23 65.1 °F 53.6 °F 30.2 in NE 3.8 mph 5.8 mph 64 % 0 in
20:28 64.6 °F 51.8 °F 30.1 in North 2.7 mph 5.8 mph 64 % 0 in
20:33 64.4 °F 51.8 °F 30.1 in NNE 4.7 mph 5.4 mph 64 % 0 in
20:39 63.9 °F 51.8 °F 30.1 in NNE 2.7 mph 6.3 mph 65 % 0 in
20:43 63.7 °F 51.8 °F 30.2 in NNW 3.8 mph 6.3 mph 65 % 0 in
20:49 63.3 °F 51.8 °F 30.2 in NNE 3.8 mph 5.4 mph 65 % 0 in
20:54 63 °F 51.8 °F 30.2 in North 1.3 mph 4.3 mph 67 % 0 in
20:59 62.6 °F 51.8 °F 30.1 in North 1.3 mph 4.3 mph 68 % 0 in
21:04 62.2 °F 51.8 °F 30.1 in Calm   4.3 mph 68 % 0 in
21:09 62.1 °F 51.8 °F 30.1 in North 3.4 mph 4.3 mph 69 % 0 in
21:14 62.1 °F 51.8 °F 30.2 in Calm   4.3 mph 69 % 0 in
21:19 62.1 °F 51.8 °F 30.2 in North 3.6 mph 5.6 mph 69 % 0 in
21:24 61.9 °F 51.8 °F 30.2 in Calm   5.6 mph 69 % 0 in
21:29 61.7 °F 51.8 °F 30.2 in NNE 2.2 mph 3.8 mph 70 % 0 in
21:34 61.5 °F 51.8 °F 30.2 in NE 3.4 mph 4.3 mph 70 % 0 in
21:39 61.5 °F 51.8 °F 30.2 in Calm   4.3 mph 70 % 0 in
21:44 61.3 °F 51.8 °F 30.2 in Calm   4 mph 71 % 0 in
21:49 61.2 °F 53.6 °F 30.2 in Calm   2 mph 72 % 0 in
21:54 61 °F 51.8 °F 30.2 in Calm   2 mph 71 % 0 in
21:59 60.6 °F 51.8 °F 30.2 in Calm     72 % 0 in
22:04 60.4 °F 51.8 °F 30.2 in Calm   3.1 mph 72 % 0 in
22:09 60.4 °F 51.8 °F 30.2 in Calm   3.1 mph 72 % 0 in
22:14 60.3 °F 51.8 °F 30.2 in Calm   1.1 mph 72 % 0 in
22:19 60.1 °F 51.8 °F 30.2 in Calm   1.1 mph 73 % 0 in
22:24 59.9 °F 51.8 °F 30.2 in Calm   2.5 mph 73 % 0 in
22:29 59.7 °F 51.8 °F 30.2 in Calm   2.5 mph 73 % 0 in
22:34 59.5 °F 51.8 °F 30.2 in Calm     74 % 0 in
22:39 59.4 °F 51.8 °F 30.2 in Calm     74 % 0 in
22:44 59.2 °F 51.8 °F 30.2 in Calm     74 % 0 in
22:49 59 °F 51.8 °F 30.2 in Calm     76 % 0 in
22:55 58.6 °F 51.8 °F 30.2 in Calm     77 % 0 in
23:00 58.5 °F 51.8 °F 30.2 in Calm     77 % 0 in
23:05 58.5 °F 51.8 °F 30.2 in Calm   1.6 mph 77 % 0 in
23:10 58.3 °F 51.8 °F 30.2 in Calm   1.6 mph 77 % 0 in
23:15 58.1 °F 51.8 °F 30.2 in Calm   0.9 mph 78 % 0 in
23:20 57.9 °F 51.8 °F 30.2 in Calm   2 mph 79 % 0 in
23:25 57.9 °F 51.8 °F 30.2 in Calm   2 mph 80 % 0 in
23:30 57.7 °F 51.8 °F 30.2 in Calm     80 % 0 in
23:35 57.7 °F 51.8 °F 30.2 in Calm     80 % 0 in
23:40 57.7 °F 51.8 °F 30.2 in Calm     81 % 0 in
23:45 57.9 °F 51.8 °F 30.2 in Calm     81 % 0 in
23:50 57.9 °F 51.8 °F 30.2 in Calm     81 % 0 in
23:55 57.9 °F 51.8 °F 30.2 in Calm     81 % 0 in
Le Gheer Warneton
Courtoisie de Weather Underground - 2.25 mb

Mise a jour : 18/12/2017 17:30:12
Généré par Cumulus 1.9.4 (1099)